createdAt,value
2024-02-19T00:00:55.839Z,97.75
2024-02-19T00:03:22.560Z,98.22
2024-02-19T00:05:51.822Z,98.04
2024-02-19T00:08:18.348Z,98.21
2024-02-19T00:10:44.892Z,98.36
2024-02-19T00:13:11.410Z,98.04
2024-02-19T00:15:37.826Z,98.03
2024-02-19T00:18:04.569Z,97.66
2024-02-19T00:20:30.992Z,97.73
2024-02-19T00:22:57.371Z,98.03
2024-02-19T00:25:23.936Z,97.93
2024-02-19T00:27:50.444Z,97.26
2024-02-19T00:30:17.482Z,97.64
2024-02-19T00:32:44.014Z,97.56
2024-02-19T00:35:10.469Z,97.70
2024-02-19T00:37:36.888Z,98.23
2024-02-19T00:40:05.627Z,97.91
2024-02-19T00:42:32.039Z,98.05
2024-02-19T00:44:59.169Z,97.80
2024-02-19T00:47:25.687Z,97.77
2024-02-19T00:49:52.342Z,97.84
2024-02-19T00:52:19.041Z,97.85
2024-02-19T00:54:45.835Z,97.90
2024-02-19T00:57:12.314Z,97.73
2024-02-19T00:59:38.704Z,98.05
2024-02-19T01:02:05.189Z,98.17
2024-02-19T01:04:31.686Z,98.02
2024-02-19T01:06:58.206Z,97.83
2024-02-19T01:09:24.585Z,97.81
2024-02-19T01:11:50.994Z,97.42
2024-02-19T01:14:17.405Z,97.51
2024-02-19T01:16:44.224Z,97.48
2024-02-19T01:19:10.755Z,97.17
2024-02-19T01:21:37.908Z,96.97
2024-02-19T01:24:04.379Z,97.31
2024-02-19T01:26:31.416Z,97.71
2024-02-19T01:28:57.827Z,97.66
2024-02-19T01:31:24.397Z,97.11
2024-02-19T01:33:50.862Z,97.29
2024-02-19T01:36:17.352Z,97.57
2024-02-19T01:38:43.777Z,97.22
2024-02-19T01:41:10.165Z,97.40
2024-02-19T01:43:37.675Z,97.17
2024-02-19T01:46:04.361Z,97.26
2024-02-19T01:48:30.906Z,97.56
2024-02-19T01:50:57.734Z,97.91
2024-02-19T01:53:25.032Z,96.79
2024-02-19T01:55:52.525Z,97.04
2024-02-19T01:58:19.356Z,97.60
2024-02-19T02:00:49.352Z,97.45
2024-02-19T02:03:21.768Z,97.32
2024-02-19T02:05:49.021Z,96.70
2024-02-19T02:08:15.962Z,96.75
2024-02-19T02:10:42.360Z,96.75
2024-02-19T02:13:09.766Z,97.27
2024-02-19T02:15:36.587Z,95.95
2024-02-19T02:18:03.230Z,96.73
2024-02-19T02:20:32.286Z,96.79
2024-02-19T02:22:59.305Z,97.05
2024-02-19T02:25:25.831Z,96.69
2024-02-19T02:27:52.309Z,97.11
2024-02-19T02:30:18.730Z,97.19
2024-02-19T02:32:45.238Z,96.41
2024-02-19T02:35:11.722Z,95.81
2024-02-19T02:37:38.097Z,96.38
2024-02-19T02:40:04.917Z,96.39
2024-02-19T02:42:31.616Z,96.49
2024-02-19T02:44:58.134Z,95.78
2024-02-19T02:47:24.516Z,96.47
2024-02-19T02:49:50.916Z,96.06
2024-02-19T02:52:17.400Z,96.59
2024-02-19T02:54:43.889Z,96.20
2024-02-19T02:57:10.267Z,96.51
2024-02-19T02:59:36.721Z,95.85
2024-02-19T03:02:03.235Z,96.60
2024-02-19T03:04:29.816Z,95.64
2024-02-19T03:06:56.366Z,95.75
2024-02-19T03:09:22.779Z,95.98
2024-02-19T03:11:49.168Z,96.30
2024-02-19T03:14:17.674Z,95.61
2024-02-19T03:16:44.046Z,95.80
2024-02-19T03:19:14.384Z,96.04
2024-02-19T03:21:43.980Z,95.55
2024-02-19T03:24:10.656Z,95.53
2024-02-19T03:26:41.260Z,95.86
2024-02-19T03:29:15.765Z,96.59
2024-02-19T03:31:43.854Z,96.21
2024-02-19T03:34:11.327Z,95.19
2024-02-19T03:36:38.138Z,95.40
2024-02-19T03:39:05.681Z,95.20
2024-02-19T03:41:32.479Z,95.11
2024-02-19T03:43:59.813Z,95.39
2024-02-19T03:46:26.895Z,95.44
2024-02-19T03:48:55.109Z,95.03
2024-02-19T03:51:21.548Z,94.22
2024-02-19T03:53:47.910Z,94.36
2024-02-19T03:56:14.329Z,94.23
2024-02-19T03:58:41.330Z,94.33
2024-02-19T04:01:08.674Z,94.81
2024-02-19T04:03:35.516Z,94.85
2024-02-19T04:06:02.503Z,93.85
2024-02-19T04:08:28.898Z,92.89
2024-02-19T04:10:55.422Z,93.74
2024-02-19T04:13:21.859Z,93.34
2024-02-19T04:15:48.328Z,93.44
2024-02-19T04:18:14.817Z,93.43
2024-02-19T04:20:41.298Z,93.66
2024-02-19T04:23:07.675Z,92.72
2024-02-19T04:25:34.208Z,93.03
2024-02-19T04:28:00.775Z,93.35
2024-02-19T04:30:27.233Z,93.88
2024-02-19T04:32:54.126Z,93.19
2024-02-19T04:35:20.644Z,94.44
2024-02-19T04:37:47.098Z,93.34
2024-02-19T04:40:14.850Z,93.99
2024-02-19T04:42:41.455Z,93.71
2024-02-19T04:45:08.144Z,94.24
2024-02-19T04:47:34.603Z,94.38
2024-02-19T04:50:01.343Z,93.17
2024-02-19T04:52:27.932Z,93.03
2024-02-19T04:54:54.452Z,93.93
2024-02-19T04:57:21.271Z,93.39
2024-02-19T04:59:47.720Z,93.65
2024-02-19T05:02:14.129Z,94.72
2024-02-19T05:04:41.256Z,95.15
2024-02-19T05:07:07.797Z,95.00
2024-02-19T05:09:34.542Z,94.63
2024-02-19T05:12:00.988Z,95.30
2024-02-19T05:14:27.387Z,93.82
2024-02-19T05:16:56.020Z,95.20
2024-02-19T05:19:22.801Z,94.88
2024-02-19T05:21:49.804Z,94.63
2024-02-19T05:24:18.534Z,94.86
2024-02-19T05:26:45.180Z,94.17
2024-02-19T05:29:12.067Z,94.80
2024-02-19T05:31:39.710Z,94.76
2024-02-19T05:34:07.614Z,94.25
2024-02-19T05:36:34.651Z,95.33
2024-02-19T05:39:01.627Z,94.76
2024-02-19T05:41:28.389Z,96.00
2024-02-19T05:43:55.081Z,95.99
2024-02-19T05:46:21.602Z,96.09
2024-02-19T05:48:49.677Z,94.66
2024-02-19T05:51:16.398Z,95.22
2024-02-19T05:53:42.911Z,95.83
2024-02-19T05:56:10.320Z,95.17
2024-02-19T05:58:43.440Z,95.29
2024-02-19T06:01:10.193Z,94.45
2024-02-19T06:03:36.989Z,94.37
2024-02-19T06:06:04.350Z,95.37
2024-02-19T06:08:31.131Z,95.69
2024-02-19T06:10:58.735Z,95.90
2024-02-19T06:13:26.129Z,96.30
2024-02-19T06:15:52.864Z,96.58
2024-02-19T06:18:19.536Z,95.61
2024-02-19T06:20:48.422Z,96.65
2024-02-19T06:23:15.536Z,97.10
2024-02-19T06:25:43.507Z,96.19
2024-02-19T06:28:10.263Z,96.42
2024-02-19T06:30:36.805Z,97.38
2024-02-19T06:33:03.701Z,96.11
2024-02-19T06:35:30.279Z,96.41
2024-02-19T06:37:57.063Z,97.84
2024-02-19T06:40:23.706Z,96.79
2024-02-19T06:42:53.644Z,97.15
2024-02-19T06:45:21.196Z,96.64
2024-02-19T06:47:47.621Z,97.10
2024-02-19T06:50:14.101Z,97.71
2024-02-19T06:52:44.408Z,96.66
2024-02-19T06:55:10.934Z,96.81
2024-02-19T06:57:37.402Z,97.11
2024-02-19T07:00:04.171Z,97.06
2024-02-19T07:02:30.544Z,97.01
2024-02-19T07:04:57.287Z,96.54
2024-02-19T07:07:23.849Z,97.21
2024-02-19T07:09:52.309Z,97.44
2024-02-19T07:12:18.910Z,97.37
2024-02-19T07:14:45.294Z,97.19
2024-02-19T07:17:11.679Z,97.28
2024-02-19T07:19:38.139Z,97.57
2024-02-19T07:22:04.958Z,97.79
2024-02-19T07:24:33.908Z,97.04
2024-02-19T07:27:00.378Z,97.74
2024-02-19T07:29:27.316Z,98.15
2024-02-19T07:31:54.040Z,96.90
2024-02-19T07:34:20.663Z,97.61
2024-02-19T07:36:47.381Z,97.29
2024-02-19T07:39:15.031Z,97.61
2024-02-19T07:41:41.418Z,97.29
2024-02-19T07:44:07.971Z,97.34
2024-02-19T07:46:34.639Z,96.80
2024-02-19T07:49:01.276Z,97.52
2024-02-19T07:51:27.777Z,96.95
2024-02-19T07:53:54.144Z,97.90
2024-02-19T07:56:20.704Z,97.40
2024-02-19T07:58:47.109Z,97.47
2024-02-19T08:01:13.687Z,97.16
2024-02-19T08:03:40.234Z,97.20
2024-02-19T08:06:08.345Z,97.60
2024-02-19T08:08:34.851Z,97.25
2024-02-19T08:11:01.370Z,97.72
2024-02-19T08:13:28.008Z,97.38
2024-02-19T08:15:54.584Z,97.68
2024-02-19T08:18:21.908Z,97.98
2024-02-19T08:20:49.211Z,97.22
2024-02-19T08:23:15.647Z,98.13
2024-02-19T08:25:42.016Z,97.25
2024-02-19T08:28:08.416Z,96.97
2024-02-19T08:30:34.840Z,97.92
2024-02-19T08:33:01.377Z,98.07
2024-02-19T08:35:28.516Z,97.44
2024-02-19T08:37:56.859Z,97.83
2024-02-19T08:40:23.330Z,97.60
2024-02-19T08:42:51.226Z,97.14
2024-02-19T08:45:20.342Z,97.41
2024-02-19T08:47:48.736Z,97.22
2024-02-19T08:50:15.460Z,97.89
2024-02-19T08:52:42.109Z,96.93
2024-02-19T08:55:08.695Z,97.02
2024-02-19T08:57:35.185Z,97.32
2024-02-19T09:00:01.672Z,96.93
2024-02-19T09:02:28.356Z,96.88
2024-02-19T09:04:54.847Z,96.77
2024-02-19T09:07:21.440Z,96.88
2024-02-19T09:09:47.928Z,96.45
2024-02-19T09:12:14.672Z,96.38
2024-02-19T09:14:41.172Z,96.76
2024-02-19T09:17:08.350Z,95.89
2024-02-19T09:19:35.179Z,96.14
2024-02-19T09:22:03.380Z,95.35
2024-02-19T09:24:30.272Z,95.94
2024-02-19T09:26:56.692Z,95.39
2024-02-19T09:29:23.093Z,96.62
2024-02-19T09:31:49.581Z,96.51
2024-02-19T09:34:16.115Z,96.97
2024-02-19T09:36:46.971Z,95.85
2024-02-19T09:39:13.529Z,94.90
2024-02-19T09:41:40.654Z,95.61
2024-02-19T09:44:08.573Z,95.49
2024-02-19T09:46:36.508Z,94.60
2024-02-19T09:49:05.358Z,95.78
2024-02-19T09:51:40.877Z,96.34
2024-02-19T09:54:07.835Z,96.38
2024-02-19T09:56:35.948Z,96.08
2024-02-19T09:59:02.916Z,96.43
2024-02-19T10:01:29.502Z,96.70
2024-02-19T10:03:57.780Z,95.78
2024-02-19T10:06:33.699Z,96.37
2024-02-19T10:09:01.707Z,95.96
2024-02-19T10:11:28.341Z,95.40
2024-02-19T10:13:54.773Z,96.10
2024-02-19T10:16:21.299Z,95.73
2024-02-19T10:18:47.974Z,95.55
2024-02-19T10:21:14.403Z,96.13
2024-02-19T10:23:40.889Z,96.62
2024-02-19T10:26:08.690Z,95.84
2024-02-19T10:28:36.530Z,96.96
2024-02-19T10:31:03.089Z,96.52
2024-02-19T10:33:29.602Z,95.92
2024-02-19T10:35:56.423Z,95.79
2024-02-19T10:38:23.319Z,96.00
2024-02-19T10:40:49.885Z,95.64
2024-02-19T10:43:19.018Z,95.29
2024-02-19T10:45:48.357Z,96.64
2024-02-19T10:48:15.732Z,95.61
2024-02-19T10:50:42.174Z,96.44
2024-02-19T10:53:08.671Z,96.54
2024-02-19T10:55:49.656Z,96.61
2024-02-19T10:58:26.217Z,96.60
2024-02-19T11:00:54.543Z,96.97
2024-02-19T11:03:22.074Z,95.96
2024-02-19T11:05:48.590Z,95.75
2024-02-19T11:08:22.973Z,95.79
2024-02-19T11:10:51.020Z,94.79
2024-02-19T11:13:23.209Z,94.46
2024-02-19T11:15:49.909Z,93.95
2024-02-19T11:18:18.276Z,93.85
2024-02-19T11:20:45.933Z,92.60
2024-02-19T11:23:12.981Z,93.67
2024-02-19T11:25:40.307Z,93.68
2024-02-19T11:28:07.550Z,92.80
2024-02-19T11:30:34.010Z,93.05
2024-02-19T11:33:04.464Z,92.45
2024-02-19T11:35:34.519Z,93.78
2024-02-19T11:38:03.921Z,92.40
2024-02-19T11:40:33.552Z,91.39
2024-02-19T11:43:02.114Z,91.59
2024-02-19T11:45:30.195Z,90.22
2024-02-19T11:47:57.826Z,91.20
2024-02-19T11:50:31.228Z,90.73
2024-02-19T11:53:01.528Z,90.99
2024-02-19T11:55:31.653Z,90.36
2024-02-19T11:58:01.798Z,90.44
2024-02-19T12:00:32.688Z,89.12
2024-02-19T12:03:00.051Z,90.72
2024-02-19T12:05:27.703Z,89.28
2024-02-19T12:07:54.440Z,87.46
2024-02-19T12:10:20.905Z,88.87
2024-02-19T12:12:47.952Z,86.84
2024-02-19T12:15:20.382Z,84.70
2024-02-19T12:17:49.581Z,86.63
2024-02-19T12:20:16.594Z,84.92
2024-02-19T12:22:43.346Z,86.75
2024-02-19T12:25:12.619Z,86.83
2024-02-19T12:27:39.152Z,87.83
2024-02-19T12:30:06.568Z,89.12
2024-02-19T12:32:33.439Z,89.79
2024-02-19T12:35:00.587Z,89.84
2024-02-19T12:37:29.943Z,90.81
2024-02-19T12:39:56.889Z,91.89
2024-02-19T12:42:23.388Z,90.08
2024-02-19T12:44:49.745Z,92.12
2024-02-19T12:47:16.217Z,91.69
2024-02-19T12:49:42.809Z,93.43
2024-02-19T12:52:11.101Z,92.58
2024-02-19T12:54:37.575Z,91.85
2024-02-19T12:57:06.889Z,91.95
2024-02-19T12:59:33.279Z,92.94
2024-02-19T13:01:59.817Z,92.26
2024-02-19T13:04:27.576Z,93.89
2024-02-19T13:06:57.016Z,93.66
2024-02-19T13:09:23.662Z,92.89
2024-02-19T13:11:50.146Z,93.35
2024-02-19T13:14:16.542Z,91.83
2024-02-19T13:16:43.503Z,91.93
2024-02-19T13:19:11.166Z,92.17
2024-02-19T13:21:37.689Z,90.56
2024-02-19T13:24:04.365Z,91.07
2024-02-19T13:26:30.751Z,91.96
2024-02-19T13:28:57.249Z,90.89
2024-02-19T13:31:23.979Z,90.42
2024-02-19T13:33:50.524Z,92.40
2024-02-19T13:36:17.700Z,92.72
2024-02-19T13:38:44.472Z,92.85
2024-02-19T13:41:13.833Z,92.42
2024-02-19T13:43:41.959Z,93.90
2024-02-19T13:46:08.851Z,94.31
2024-02-19T13:48:35.888Z,94.03
2024-02-19T13:51:02.676Z,93.66
2024-02-19T13:53:30.556Z,91.63
2024-02-19T13:56:00.646Z,91.82
2024-02-19T13:58:28.828Z,91.99
2024-02-19T14:00:57.666Z,92.22
2024-02-19T14:03:25.113Z,90.60
2024-02-19T14:05:51.993Z,91.56
2024-02-19T14:08:20.273Z,90.27
2024-02-19T14:10:48.421Z,90.52
2024-02-19T14:13:16.493Z,89.49
2024-02-19T14:15:42.999Z,88.37
2024-02-19T14:18:09.480Z,87.06
2024-02-19T14:20:35.972Z,88.43
2024-02-19T14:23:03.472Z,88.33
2024-02-19T14:25:30.888Z,85.63
2024-02-19T14:27:57.920Z,82.89
2024-02-19T14:30:24.316Z,84.43
2024-02-19T14:32:50.773Z,84.03
2024-02-19T14:35:17.466Z,85.48
2024-02-19T14:37:45.025Z,84.12
2024-02-19T14:40:14.850Z,83.64
2024-02-19T14:42:42.453Z,84.10
2024-02-19T14:45:09.362Z,83.60
2024-02-19T14:47:38.199Z,85.69
2024-02-19T14:50:06.137Z,85.97
2024-02-19T14:52:34.151Z,86.12
2024-02-19T14:55:02.193Z,87.20
2024-02-19T14:57:30.048Z,86.10
2024-02-19T14:59:56.427Z,86.60
2024-02-19T15:02:23.256Z,86.88
2024-02-19T15:04:49.902Z,87.43
2024-02-19T15:07:16.493Z,87.92
2024-02-19T15:09:43.352Z,89.28
2024-02-19T15:12:10.376Z,87.98
2024-02-19T15:14:36.810Z,88.46
2024-02-19T15:17:04.250Z,88.51
2024-02-19T15:19:30.702Z,88.56
2024-02-19T15:21:57.196Z,89.02
2024-02-19T15:24:23.575Z,90.81
2024-02-19T15:26:50.405Z,90.77
2024-02-19T15:29:18.203Z,89.32
2024-02-19T15:31:44.616Z,91.03
2024-02-19T15:34:11.056Z,89.03
2024-02-19T15:36:37.557Z,89.33
2024-02-19T15:39:04.009Z,90.45
2024-02-19T15:41:32.656Z,90.26
2024-02-19T15:43:59.944Z,92.07
2024-02-19T15:46:26.641Z,91.98
2024-02-19T15:48:53.117Z,92.82
2024-02-19T15:51:19.550Z,91.89
2024-02-19T15:53:46.012Z,92.24
2024-02-19T15:56:12.416Z,92.81
2024-02-19T15:58:40.147Z,91.81
2024-02-19T16:01:07.696Z,92.04
2024-02-19T16:03:34.262Z,93.77
2024-02-19T16:06:01.291Z,92.38
2024-02-19T16:08:33.734Z,93.21
2024-02-19T16:11:04.468Z,93.34
2024-02-19T16:13:32.407Z,93.49
2024-02-19T16:15:59.751Z,93.41
2024-02-19T16:18:27.267Z,94.15
2024-02-19T16:20:53.740Z,95.02
2024-02-19T16:23:20.145Z,95.34
2024-02-19T16:25:46.653Z,94.49
2024-02-19T16:28:13.472Z,95.50
2024-02-19T16:30:39.856Z,94.59
2024-02-19T16:33:06.392Z,94.88
2024-02-19T16:35:32.900Z,95.17
2024-02-19T16:37:59.344Z,93.95
2024-02-19T16:40:26.553Z,94.59
2024-02-19T16:42:54.037Z,95.30
2024-02-19T16:45:20.623Z,94.83
2024-02-19T16:47:47.058Z,94.40
2024-02-19T16:50:13.491Z,94.68
2024-02-19T16:52:39.922Z,94.47
2024-02-19T16:55:09.519Z,93.90
2024-02-19T16:57:36.178Z,94.50
2024-02-19T17:00:04.268Z,94.38
2024-02-19T17:02:31.037Z,94.56
2024-02-19T17:04:57.512Z,94.41
2024-02-19T17:07:24.396Z,95.35
2024-02-19T17:09:51.116Z,94.64
2024-02-19T17:12:17.593Z,95.88
2024-02-19T17:14:45.857Z,94.90
2024-02-19T17:17:12.791Z,95.81
2024-02-19T17:19:39.328Z,95.43
2024-02-19T17:22:06.044Z,95.96
2024-02-19T17:24:37.776Z,95.48
2024-02-19T17:27:04.687Z,96.65
2024-02-19T17:29:31.158Z,96.31
2024-02-19T17:31:57.870Z,96.15
2024-02-19T17:34:28.082Z,96.62
2024-02-19T17:36:54.751Z,97.03
2024-02-19T17:39:24.784Z,96.69
2024-02-19T17:41:51.182Z,96.37
2024-02-19T17:44:17.674Z,97.25
2024-02-19T17:46:44.230Z,96.43
2024-02-19T17:49:14.358Z,97.26
2024-02-19T17:51:41.271Z,96.81
2024-02-19T17:54:10.803Z,97.50
2024-02-19T17:56:40.743Z,97.62
2024-02-19T17:59:12.364Z,97.35
2024-02-19T18:01:39.772Z,96.88
2024-02-19T18:04:06.494Z,96.75
2024-02-19T18:06:35.183Z,97.54
2024-02-19T18:09:03.947Z,95.79
2024-02-19T18:11:30.678Z,97.16
2024-02-19T18:13:57.566Z,97.17
2024-02-19T18:16:24.003Z,96.38
2024-02-19T18:18:50.568Z,97.07
2024-02-19T18:21:21.426Z,96.13
2024-02-19T18:23:48.489Z,96.35
2024-02-19T18:26:15.016Z,96.76
2024-02-19T18:28:41.424Z,96.42
2024-02-19T18:31:11.777Z,96.09
2024-02-19T18:33:38.522Z,96.09
2024-02-19T18:36:06.045Z,96.28
2024-02-19T18:38:34.488Z,96.72
2024-02-19T18:41:03.462Z,96.44
2024-02-19T18:43:30.441Z,96.13
2024-02-19T18:45:56.956Z,96.91
2024-02-19T18:48:24.288Z,96.11
2024-02-19T18:50:51.304Z,95.98
2024-02-19T18:53:17.792Z,96.70
2024-02-19T18:55:45.140Z,96.77
2024-02-19T18:58:11.574Z,96.26
2024-02-19T19:00:38.063Z,96.87
2024-02-19T19:03:04.585Z,96.86
2024-02-19T19:05:31.603Z,96.19
2024-02-19T19:07:59.002Z,96.24
2024-02-19T19:10:25.786Z,96.29
2024-02-19T19:12:52.364Z,96.77
2024-02-19T19:15:18.845Z,96.51
2024-02-19T19:17:46.168Z,96.05
2024-02-19T19:20:12.917Z,96.39
2024-02-19T19:22:39.993Z,96.04
2024-02-19T19:25:07.999Z,96.76
2024-02-19T19:27:34.876Z,96.26
2024-02-19T19:30:01.395Z,96.40
2024-02-19T19:32:30.067Z,96.37
2024-02-19T19:34:57.122Z,96.44
2024-02-19T19:37:25.550Z,96.17
2024-02-19T19:39:52.342Z,96.09
2024-02-19T19:42:19.929Z,96.57
2024-02-19T19:44:46.376Z,96.63
2024-02-19T19:47:12.808Z,96.04
2024-02-19T19:49:39.284Z,96.16
2024-02-19T19:52:05.840Z,96.35
2024-02-19T19:54:32.253Z,96.86
2024-02-19T19:56:58.693Z,96.40
2024-02-19T19:59:27.288Z,96.16
2024-02-19T20:01:53.868Z,95.98
2024-02-19T20:04:20.852Z,96.39
2024-02-19T20:06:47.572Z,96.34
2024-02-19T20:09:14.178Z,96.33
2024-02-19T20:11:40.696Z,96.12
2024-02-19T20:14:07.117Z,96.64
2024-02-19T20:16:36.546Z,96.56
2024-02-19T20:19:03.017Z,95.98
2024-02-19T20:21:29.434Z,96.48
2024-02-19T20:23:56.097Z,95.87
2024-02-19T20:26:22.547Z,96.41
2024-02-19T20:28:49.632Z,96.29
2024-02-19T20:31:16.054Z,96.40
2024-02-19T20:33:42.616Z,96.72
2024-02-19T20:36:09.305Z,96.62
2024-02-19T20:38:35.753Z,96.04
2024-02-19T20:41:03.938Z,96.83
2024-02-19T20:43:30.438Z,96.49
2024-02-19T20:45:56.986Z,96.60
2024-02-19T20:48:24.293Z,96.89
2024-02-19T20:50:50.863Z,97.00
2024-02-19T20:53:17.281Z,96.97
2024-02-19T20:55:43.755Z,96.82
2024-02-19T20:58:10.457Z,97.13
2024-02-19T21:00:36.984Z,97.20
2024-02-19T21:03:03.997Z,97.19
2024-02-19T21:05:30.429Z,97.04
2024-02-19T21:07:56.996Z,96.76
2024-02-19T21:10:23.716Z,97.27
2024-02-19T21:12:51.227Z,96.69
2024-02-19T21:15:17.840Z,97.58
2024-02-19T21:17:44.240Z,97.68
2024-02-19T21:20:12.129Z,97.26
2024-02-19T21:22:39.326Z,97.41
2024-02-19T21:25:06.400Z,97.19
2024-02-19T21:27:32.913Z,97.49
2024-02-19T21:29:59.349Z,97.36
2024-02-19T21:32:30.040Z,97.67
2024-02-19T21:34:58.222Z,97.57
2024-02-19T21:37:27.440Z,97.78
2024-02-19T21:39:53.945Z,97.48
2024-02-19T21:42:25.669Z,97.39
2024-02-19T21:44:52.500Z,97.49
2024-02-19T21:47:19.066Z,97.17
2024-02-19T21:49:46.368Z,97.69
2024-02-19T21:52:13.113Z,97.80
2024-02-19T21:54:39.809Z,97.23
2024-02-19T21:57:06.238Z,97.49
2024-02-19T21:59:32.667Z,97.67
2024-02-19T22:01:59.676Z,96.93
2024-02-19T22:04:26.336Z,97.91
2024-02-19T22:06:52.811Z,98.00
2024-02-19T22:09:19.207Z,97.79
2024-02-19T22:11:45.738Z,97.76
2024-02-19T22:14:12.895Z,96.80
2024-02-19T22:16:39.372Z,97.00
2024-02-19T22:19:05.808Z,97.48
2024-02-19T22:21:32.294Z,97.32
2024-02-19T22:23:58.740Z,97.63
2024-02-19T22:26:25.129Z,97.60
2024-02-19T22:28:52.345Z,97.70
2024-02-19T22:31:18.734Z,97.73
2024-02-19T22:33:45.242Z,97.63
2024-02-19T22:36:11.721Z,97.30
2024-02-19T22:38:38.983Z,97.33
2024-02-19T22:41:05.372Z,97.83
2024-02-19T22:43:31.782Z,97.18
2024-02-19T22:45:58.721Z,97.04
2024-02-19T22:48:25.608Z,96.98
2024-02-19T22:50:52.050Z,97.17
2024-02-19T22:53:19.413Z,97.03
2024-02-19T22:55:45.979Z,96.93
2024-02-19T22:58:17.768Z,96.57
2024-02-19T23:00:50.204Z,96.71
2024-02-19T23:03:16.863Z,96.78
2024-02-19T23:05:44.086Z,96.45
2024-02-19T23:08:10.888Z,96.46
2024-02-19T23:10:37.293Z,96.21
2024-02-19T23:13:04.667Z,96.36
2024-02-19T23:15:31.542Z,97.16
2024-02-19T23:17:58.512Z,96.24
2024-02-19T23:20:25.026Z,96.43
2024-02-19T23:22:51.541Z,96.65
2024-02-19T23:25:18.401Z,96.68
2024-02-19T23:27:44.860Z,97.19
2024-02-19T23:30:12.591Z,97.24
2024-02-19T23:32:39.183Z,96.86
2024-02-19T23:35:07.653Z,97.42
2024-02-19T23:37:34.226Z,96.79
2024-02-19T23:40:01.118Z,96.94
2024-02-19T23:42:27.812Z,96.33
2024-02-19T23:44:54.331Z,96.90
2024-02-19T23:47:20.989Z,96.66
2024-02-19T23:49:47.782Z,96.86
2024-02-19T23:52:14.637Z,96.82
2024-02-19T23:54:41.184Z,96.57
2024-02-19T23:57:08.589Z,96.32
2024-02-19T23:59:35.426Z,96.23
